sensor_id;sensor_type;location;lat;lon;timestamp;pressure;altitude;pressure_sealevel;temperature;humidity
788;BME280;16074;42.708;23.312;2023-04-30T00:00:48;141183.72;;;11.90;94.46
788;BME280;16074;42.708;23.312;2023-04-30T00:03:17;141178.97;;;11.88;94.04
788;BME280;16074;42.708;23.312;2023-04-30T00:05:49;141180.13;;;11.88;94.15
788;BME280;16074;42.708;23.312;2023-04-30T00:08:17;141178.97;;;11.88;93.62
788;BME280;16074;42.708;23.312;2023-04-30T00:10:45;141170.50;;;11.85;93.68
788;BME280;16074;42.708;23.312;2023-04-30T00:13:14;141168.06;;;11.84;93.41
788;BME280;16074;42.708;23.312;2023-04-30T00:15:42;141164.47;;;11.82;93.40
788;BME280;16074;42.708;23.312;2023-04-30T00:18:11;141147.59;;;11.75;94.74
788;BME280;16074;42.708;23.312;2023-04-30T00:20:41;141134.31;;;11.70;94.62
788;BME280;16074;42.708;23.312;2023-04-30T00:23:09;141116.25;;;11.62;94.75
788;BME280;16074;42.708;23.312;2023-04-30T00:25:37;141067.97;;;11.42;97.46
788;BME280;16074;42.708;23.312;2023-04-30T00:28:05;141078.84;;;11.47;96.91
788;BME280;16074;42.708;23.312;2023-04-30T00:30:34;141071.63;;;11.44;97.93
788;BME280;16074;42.708;23.312;2023-04-30T00:33:02;141077.63;;;11.46;97.90
788;BME280;16074;42.708;23.312;2023-04-30T00:35:31;141082.44;;;11.48;97.97
788;BME280;16074;42.708;23.312;2023-04-30T00:38:01;141074.03;;;11.45;97.97
788;BME280;16074;42.708;23.312;2023-04-30T00:40:29;141064.38;;;11.41;96.79
788;BME280;16074;42.708;23.312;2023-04-30T00:42:57;141060.75;;;11.39;97.42
788;BME280;16074;42.708;23.312;2023-04-30T00:45:25;141001.72;;;11.15;99.05
788;BME280;16074;42.708;23.312;2023-04-30T00:47:54;140983.66;;;11.07;100.00
788;BME280;16074;42.708;23.312;2023-04-30T00:50:22;140995.72;;;11.12;100.00
788;BME280;16074;42.708;23.312;2023-04-30T00:52:51;140971.59;;;11.02;100.00
788;BME280;16074;42.708;23.312;2023-04-30T00:55:21;140977.59;;;11.05;100.00
788;BME280;16074;42.708;23.312;2023-04-30T00:57:50;140980.03;;;11.06;100.00
788;BME280;16074;42.708;23.312;2023-04-30T01:00:18;140966.78;;;11.00;100.00
788;BME280;16074;42.708;23.312;2023-04-30T01:02:47;140940.28;;;10.89;100.00
788;BME280;16074;42.708;23.312;2023-04-30T01:05:16;140928.22;;;10.84;100.00
788;BME280;16074;42.708;23.312;2023-04-30T01:07:44;140948.75;;;10.93;100.00
788;BME280;16074;42.708;23.312;2023-04-30T01:10:14;140935.47;;;10.87;100.00
788;BME280;16074;42.708;23.312;2023-04-30T01:12:51;140927.06;;;10.84;100.00
788;BME280;16074;42.708;23.312;2023-04-30T01:15:26;140925.81;;;10.83;100.00
788;BME280;16074;42.708;23.312;2023-04-30T01:18:04;140928.22;;;10.84;100.00
788;BME280;16074;42.708;23.312;2023-04-30T01:20:38;140923.41;;;10.82;100.00
788;BME280;16074;42.708;23.312;2023-04-30T01:23:18;140907.78;;;10.76;100.00
788;BME280;16074;42.708;23.312;2023-04-30T01:26:06;140908.97;;;10.76;100.00
788;BME280;16074;42.708;23.312;2023-04-30T01:28:41;140902.97;;;10.74;100.00
788;BME280;16074;42.708;23.312;2023-04-30T01:31:12;140895.72;;;10.71;100.00
788;BME280;16074;42.708;23.312;2023-04-30T01:33:40;140886.09;;;10.67;100.00
788;BME280;16074;42.708;23.312;2023-04-30T01:36:20;140882.50;;;10.66;100.00
788;BME280;16074;42.708;23.312;2023-04-30T01:39:13;140888.50;;;10.68;100.00
788;BME280;16074;42.708;23.312;2023-04-30T01:41:55;140881.28;;;10.65;100.00
788;BME280;16074;42.708;23.312;2023-04-30T01:44:42;140883.69;;;10.66;100.00
788;BME280;16074;42.708;23.312;2023-04-30T01:47:25;140884.91;;;10.67;100.00
788;BME280;16074;42.708;23.312;2023-04-30T01:50:04;140895.72;;;10.71;100.00
788;BME280;16074;42.708;23.312;2023-04-30T01:52:39;140890.91;;;10.69;100.00
788;BME280;16074;42.708;23.312;2023-04-30T01:55:11;140906.59;;;10.75;100.00
788;BME280;16074;42.708;23.312;2023-04-30T01:57:43;140915.00;;;10.79;100.00
788;BME280;16074;42.708;23.312;2023-04-30T02:00:14;140921.00;;;10.81;100.00
788;BME280;16074;42.708;23.312;2023-04-30T02:02:43;140910.19;;;10.77;100.00
788;BME280;16074;42.708;23.312;2023-04-30T02:05:12;140912.59;;;10.78;100.00
788;BME280;16074;42.708;23.312;2023-04-30T02:07:41;140915.00;;;10.79;100.00
788;BME280;16074;42.708;23.312;2023-04-30T02:10:10;140928.22;;;10.84;100.00
788;BME280;16074;42.708;23.312;2023-04-30T02:12:39;140916.19;;;10.79;100.00
788;BME280;16074;42.708;23.312;2023-04-30T02:15:08;140925.81;;;10.83;100.00
788;BME280;16074;42.708;23.312;2023-04-30T02:17:41;140925.81;;;10.83;100.00
788;BME280;16074;42.708;23.312;2023-04-30T02:20:10;140925.81;;;10.83;100.00
788;BME280;16074;42.708;23.312;2023-04-30T02:22:39;140929.47;;;10.85;100.00
788;BME280;16074;42.708;23.312;2023-04-30T02:25:08;140927.06;;;10.84;100.00
788;BME280;16074;42.708;23.312;2023-04-30T02:27:40;140922.22;;;10.82;100.00
788;BME280;16074;42.708;23.312;2023-04-30T02:30:09;140929.47;;;10.85;100.00
788;BME280;16074;42.708;23.312;2023-04-30T02:32:43;140918.59;;;10.80;100.00
788;BME280;16074;42.708;23.312;2023-04-30T02:35:13;140923.41;;;10.82;100.00
788;BME280;16074;42.708;23.312;2023-04-30T02:37:41;140931.88;;;10.86;100.00
788;BME280;16074;42.708;23.312;2023-04-30T02:40:10;140935.47;;;10.87;100.00
788;BME280;16074;42.708;23.312;2023-04-30T02:42:38;140936.69;;;10.88;100.00
788;BME280;16074;42.708;23.312;2023-04-30T02:45:07;140935.47;;;10.87;100.00
788;BME280;16074;42.708;23.312;2023-04-30T02:47:36;140952.34;;;10.94;100.00
788;BME280;16074;42.708;23.312;2023-04-30T02:50:07;140958.38;;;10.97;100.00
788;BME280;16074;42.708;23.312;2023-04-30T02:52:36;140955.97;;;10.96;100.00
788;BME280;16074;42.708;23.312;2023-04-30T02:55:05;140951.16;;;10.94;100.00
788;BME280;16074;42.708;23.312;2023-04-30T02:57:33;140948.75;;;10.93;100.00
788;BME280;16074;42.708;23.312;2023-04-30T03:00:02;140957.16;;;10.96;100.00
788;BME280;16074;42.708;23.312;2023-04-30T03:02:31;140955.97;;;10.96;100.00
788;BME280;16074;42.708;23.312;2023-04-30T03:05:01;140957.16;;;10.96;100.00
788;BME280;16074;42.708;23.312;2023-04-30T03:07:31;140939.09;;;10.89;100.00
788;BME280;16074;42.708;23.312;2023-04-30T03:09:59;140931.88;;;10.86;100.00
788;BME280;16074;42.708;23.312;2023-04-30T03:12:27;140872.88;;;10.62;100.00
788;BME280;16074;42.708;23.312;2023-04-30T03:14:56;140878.88;;;10.64;100.00
788;BME280;16074;42.708;23.312;2023-04-30T03:17:24;140869.22;;;10.60;100.00
788;BME280;16074;42.708;23.312;2023-04-30T03:19:52;140884.91;;;10.67;100.00
788;BME280;16074;42.708;23.312;2023-04-30T03:22:21;140884.91;;;10.67;100.00
788;BME280;16074;42.708;23.312;2023-04-30T03:24:54;140887.31;;;10.68;100.00
788;BME280;16074;42.708;23.312;2023-04-30T03:27:22;140860.81;;;10.57;100.00
788;BME280;16074;42.708;23.312;2023-04-30T03:29:50;140870.47;;;10.61;100.00
788;BME280;16074;42.708;23.312;2023-04-30T03:32:19;140865.63;;;10.59;100.00
788;BME280;16074;42.708;23.312;2023-04-30T03:34:47;140870.47;;;10.61;100.00
788;BME280;16074;42.708;23.312;2023-04-30T03:37:15;140875.28;;;10.63;100.00
788;BME280;16074;42.708;23.312;2023-04-30T03:39:44;140869.22;;;10.60;100.00
788;BME280;16074;42.708;23.312;2023-04-30T03:42:14;140857.19;;;10.55;100.00
788;BME280;16074;42.708;23.312;2023-04-30T03:44:42;140829.50;;;10.44;100.00
788;BME280;16074;42.708;23.312;2023-04-30T03:47:10;140837.97;;;10.47;100.00
788;BME280;16074;42.708;23.312;2023-04-30T03:49:39;140831.91;;;10.45;100.00
788;BME280;16074;42.708;23.312;2023-04-30T03:52:07;140831.91;;;10.45;100.00
788;BME280;16074;42.708;23.312;2023-04-30T03:54:35;140818.69;;;10.39;100.00
788;BME280;16074;42.708;23.312;2023-04-30T03:57:04;140840.31;;;10.48;100.00
788;BME280;16074;42.708;23.312;2023-04-30T03:59:35;140833.13;;;10.45;100.00
788;BME280;16074;42.708;23.312;2023-04-30T04:02:03;140833.13;;;10.45;100.00
788;BME280;16074;42.708;23.312;2023-04-30T04:04:32;140835.56;;;10.46;100.00
788;BME280;16074;42.708;23.312;2023-04-30T04:07:00;140852.38;;;10.53;100.00
788;BME280;16074;42.708;23.312;2023-04-30T04:09:29;140829.50;;;10.44;100.00
788;BME280;16074;42.708;23.312;2023-04-30T04:11:57;140819.88;;;10.40;100.00
788;BME280;16074;42.708;23.312;2023-04-30T04:14:27;140839.13;;;10.48;100.00
788;BME280;16074;42.708;23.312;2023-04-30T04:16:57;140817.47;;;10.39;100.00
788;BME280;16074;42.708;23.312;2023-04-30T04:19:26;140811.47;;;10.36;100.00
788;BME280;16074;42.708;23.312;2023-04-30T04:21:56;140852.38;;;10.53;100.00
788;BME280;16074;42.708;23.312;2023-04-30T04:24:24;140870.47;;;10.61;100.00
788;BME280;16074;42.708;23.312;2023-04-30T04:26:53;140886.09;;;10.67;100.00
788;BME280;16074;42.708;23.312;2023-04-30T04:29:21;140892.13;;;10.69;100.00
788;BME280;16074;42.708;23.312;2023-04-30T04:31:50;140900.53;;;10.73;100.00
788;BME280;16074;42.708;23.312;2023-04-30T04:34:20;140906.59;;;10.75;100.00
788;BME280;16074;42.708;23.312;2023-04-30T04:36:48;140892.13;;;10.69;100.00
788;BME280;16074;42.708;23.312;2023-04-30T04:39:16;140934.28;;;10.87;100.00
788;BME280;16074;42.708;23.312;2023-04-30T04:41:45;140953.56;;;10.95;100.00
788;BME280;16074;42.708;23.312;2023-04-30T04:44:13;140965.59;;;11.00;100.00
788;BME280;16074;42.708;23.312;2023-04-30T04:46:42;141005.34;;;11.16;100.00
788;BME280;16074;42.708;23.312;2023-04-30T04:49:11;141034.28;;;11.28;100.00
788;BME280;16074;42.708;23.312;2023-04-30T04:51:41;141045.09;;;11.33;99.83
788;BME280;16074;42.708;23.312;2023-04-30T04:54:09;141080.03;;;11.47;97.90
788;BME280;16074;42.708;23.312;2023-04-30T04:56:38;141096.97;;;11.54;97.88
788;BME280;16074;42.708;23.312;2023-04-30T04:59:06;141116.25;;;11.62;97.53
788;BME280;16074;42.708;23.312;2023-04-30T05:01:35;141124.66;;;11.66;96.38
788;BME280;16074;42.708;23.312;2023-04-30T05:04:04;141145.19;;;11.74;95.79
788;BME280;16074;42.708;23.312;2023-04-30T05:06:33;141164.47;;;11.82;96.13
788;BME280;16074;42.708;23.312;2023-04-30T05:09:03;141175.31;;;11.87;95.70
788;BME280;16074;42.708;23.312;2023-04-30T05:11:35;141199.44;;;11.96;95.50
788;BME280;16074;42.708;23.312;2023-04-30T05:14:03;141209.09;;;12.00;95.61
788;BME280;16074;42.708;23.312;2023-04-30T05:16:31;141168.06;;;11.84;93.85
788;BME280;16074;42.708;23.312;2023-04-30T05:19:00;141170.50;;;11.85;94.15
788;BME280;16074;42.708;23.312;2023-04-30T05:21:28;141158.44;;;11.80;93.90
788;BME280;16074;42.708;23.312;2023-04-30T05:23:57;141170.50;;;11.85;93.90
788;BME280;16074;42.708;23.312;2023-04-30T05:26:27;141175.31;;;11.87;93.87
788;BME280;16074;42.708;23.312;2023-04-30T05:28:55;141176.53;;;11.87;93.89
788;BME280;16074;42.708;23.312;2023-04-30T05:31:24;141193.38;;;11.94;94.26
788;BME280;16074;42.708;23.312;2023-04-30T05:33:52;141174.13;;;11.86;93.37
788;BME280;16074;42.708;23.312;2023-04-30T05:36:20;141193.38;;;11.94;93.58
788;BME280;16074;42.708;23.312;2023-04-30T05:38:48;141215.09;;;12.03;93.25
788;BME280;16074;42.708;23.312;2023-04-30T05:41:17;141203.03;;;11.98;92.52
788;BME280;16074;42.708;23.312;2023-04-30T05:43:46;141241.63;;;12.14;92.33
788;BME280;16074;42.708;23.312;2023-04-30T05:46:15;141270.59;;;12.26;91.72
788;BME280;16074;42.708;23.312;2023-04-30T05:48:43;141307.97;;;12.41;90.51
788;BME280;16074;42.708;23.312;2023-04-30T05:51:11;141321.19;;;12.47;89.62
788;BME280;16074;42.708;23.312;2023-04-30T05:53:39;141346.56;;;12.57;89.62
788;BME280;16074;42.708;23.312;2023-04-30T05:56:09;141388.78;;;12.75;87.87
788;BME280;16074;42.708;23.312;2023-04-30T05:58:38;141423.75;;;12.89;87.10
788;BME280;16074;42.708;23.312;2023-04-30T06:01:08;141441.94;;;12.97;86.44
788;BME280;16074;42.708;23.312;2023-04-30T06:03:37;141455.19;;;13.02;85.94
788;BME280;16074;42.708;23.312;2023-04-30T06:06:06;141473.28;;;13.09;85.53
788;BME280;16074;42.708;23.312;2023-04-30T06:08:34;141454.00;;;13.02;84.70
788;BME280;16074;42.708;23.312;2023-04-30T06:11:02;141497.44;;;13.19;84.38
788;BME280;16074;42.708;23.312;2023-04-30T06:13:31;141543.31;;;13.38;82.89
788;BME280;16074;42.708;23.312;2023-04-30T06:15:59;141531.25;;;13.33;82.07
788;BME280;16074;42.708;23.312;2023-04-30T06:18:29;141546.91;;;13.40;81.70
788;BME280;16074;42.708;23.312;2023-04-30T06:20:57;141546.91;;;13.40;81.30
788;BME280;16074;42.708;23.312;2023-04-30T06:23:25;141615.75;;;13.68;80.02
788;BME280;16074;42.708;23.312;2023-04-30T06:25:53;141623.00;;;13.71;80.37
788;BME280;16074;42.708;23.312;2023-04-30T06:28:22;141659.22;;;13.86;79.66
788;BME280;16074;42.708;23.312;2023-04-30T06:30:50;141636.31;;;13.77;81.32
788;BME280;16074;42.708;23.312;2023-04-30T06:33:20;141683.41;;;13.96;79.73
788;BME280;16074;42.708;23.312;2023-04-30T06:35:49;141678.56;;;13.94;79.69
788;BME280;16074;42.708;23.312;2023-04-30T06:38:21;141693.06;;;14.00;79.21
788;BME280;16074;42.708;23.312;2023-04-30T06:40:49;141677.34;;;13.94;78.63
788;BME280;16074;42.708;23.312;2023-04-30T06:43:17;141668.91;;;13.90;77.93
788;BME280;16074;42.708;23.312;2023-04-30T06:45:46;141696.66;;;14.02;77.45
788;BME280;16074;42.708;23.312;2023-04-30T06:48:14;141702.72;;;14.04;77.81
788;BME280;16074;42.708;23.312;2023-04-30T06:50:42;141722.06;;;14.12;77.93
788;BME280;16074;42.708;23.312;2023-04-30T06:53:12;141765.56;;;14.30;77.19
788;BME280;16074;42.708;23.312;2023-04-30T06:55:43;141797.00;;;14.43;76.17
788;BME280;16074;42.708;23.312;2023-04-30T06:58:11;141823.59;;;14.54;74.74
788;BME280;16074;42.708;23.312;2023-04-30T07:00:40;141875.56;;;14.75;74.99
788;BME280;16074;42.708;23.312;2023-04-30T07:03:08;141915.44;;;14.92;74.09
788;BME280;16074;42.708;23.312;2023-04-30T07:05:36;141971.09;;;15.15;72.51
788;BME280;16074;42.708;23.312;2023-04-30T07:08:05;142032.81;;;15.40;72.46
788;BME280;16074;42.708;23.312;2023-04-30T07:10:35;142096.91;;;15.66;71.36
788;BME280;16074;42.708;23.312;2023-04-30T07:13:03;142136.81;;;15.83;69.96
788;BME280;16074;42.708;23.312;2023-04-30T07:15:31;142173.13;;;15.98;68.31
788;BME280;16074;42.708;23.312;2023-04-30T07:17:59;142158.63;;;15.92;67.04
788;BME280;16074;42.708;23.312;2023-04-30T07:20:29;142202.19;;;16.10;66.08
788;BME280;16074;42.708;23.312;2023-04-30T07:22:58;142234.84;;;16.23;64.93
788;BME280;16074;42.708;23.312;2023-04-30T07:25:26;142236.03;;;16.24;65.08
788;BME280;16074;42.708;23.312;2023-04-30T07:27:55;142239.69;;;16.25;64.88
788;BME280;16074;42.708;23.312;2023-04-30T07:30:24;142273.66;;;16.39;64.68
788;BME280;16074;42.708;23.312;2023-04-30T07:32:52;142274.84;;;16.40;64.63
788;BME280;16074;42.708;23.312;2023-04-30T07:35:21;142260.31;;;16.34;65.00
788;BME280;16074;42.708;23.312;2023-04-30T07:37:49;142303.91;;;16.52;63.68
788;BME280;16074;42.708;23.312;2023-04-30T07:40:17;142319.63;;;16.58;64.48
788;BME280;16074;42.708;23.312;2023-04-30T07:43:02;142336.59;;;16.65;63.22
788;BME280;16074;42.708;23.312;2023-04-30T07:45:32;142359.56;;;16.74;61.83
788;BME280;16074;42.708;23.312;2023-04-30T07:48:01;142398.34;;;16.90;60.60
788;BME280;16074;42.708;23.312;2023-04-30T07:50:30;142399.56;;;16.91;61.15
788;BME280;16074;42.708;23.312;2023-04-30T07:53:00;142412.88;;;16.96;59.90
788;BME280;16074;42.708;23.312;2023-04-30T07:55:29;142432.25;;;17.04;59.98
788;BME280;16074;42.708;23.312;2023-04-30T07:57:57;142437.13;;;17.06;58.53
788;BME280;16074;42.708;23.312;2023-04-30T08:00:27;142376.53;;;16.81;58.91
788;BME280;16074;42.708;23.312;2023-04-30T08:02:57;142359.56;;;16.74;59.39
788;BME280;16074;42.708;23.312;2023-04-30T08:05:26;142406.84;;;16.94;58.76
788;BME280;16074;42.708;23.312;2023-04-30T08:07:55;142425.00;;;17.01;58.23
788;BME280;16074;42.708;23.312;2023-04-30T08:10:23;142477.06;;;17.23;58.44
788;BME280;16074;42.708;23.312;2023-04-30T08:12:52;142521.94;;;17.41;57.41
788;BME280;16074;42.708;23.312;2023-04-30T08:15:20;142511.06;;;17.37;57.37
788;BME280;16074;42.708;23.312;2023-04-30T08:17:50;142497.69;;;17.31;57.68
788;BME280;16074;42.708;23.312;2023-04-30T08:20:19;142536.47;;;17.47;57.34
788;BME280;16074;42.708;23.312;2023-04-30T08:22:49;142537.72;;;17.48;57.03
788;BME280;16074;42.708;23.312;2023-04-30T08:25:18;142543.75;;;17.50;57.23
788;BME280;16074;42.708;23.312;2023-04-30T08:27:46;142571.63;;;17.62;57.31
788;BME280;16074;42.708;23.312;2023-04-30T08:30:14;142543.75;;;17.50;57.22
788;BME280;16074;42.708;23.312;2023-04-30T08:32:42;142584.97;;;17.67;56.73
788;BME280;16074;42.708;23.312;2023-04-30T08:35:12;142614.06;;;17.79;56.18
788;BME280;16074;42.708;23.312;2023-04-30T08:37:43;142633.44;;;17.87;55.96
788;BME280;16074;42.708;23.312;2023-04-30T08:40:11;142668.63;;;18.01;55.67
788;BME280;16074;42.708;23.312;2023-04-30T08:42:44;142683.16;;;18.07;54.33
788;BME280;16074;42.708;23.312;2023-04-30T08:45:13;142704.94;;;18.16;54.73
788;BME280;16074;42.708;23.312;2023-04-30T08:47:42;142794.75;;;18.53;54.13
788;BME280;16074;42.708;23.312;2023-04-30T08:50:13;142843.25;;;18.73;52.71
788;BME280;16074;42.708;23.312;2023-04-30T08:52:42;142914.81;;;19.03;51.78
788;BME280;16074;42.708;23.312;2023-04-30T08:55:11;142995.00;;;19.35;51.33
788;BME280;16074;42.708;23.312;2023-04-30T08:57:41;143128.53;;;19.90;50.67
788;BME280;16074;42.708;23.312;2023-04-30T09:00:10;143058.09;;;19.61;48.86
788;BME280;16074;42.708;23.312;2023-04-30T09:02:40;143195.38;;;20.18;48.82
788;BME280;16074;42.708;23.312;2023-04-30T09:05:11;143307.13;;;20.63;46.16
788;BME280;16074;42.708;23.312;2023-04-30T09:07:43;143387.34;;;20.96;45.69
788;BME280;16074;42.708;23.312;2023-04-30T09:10:16;143485.81;;;21.37;44.52
788;BME280;16074;42.708;23.312;2023-04-30T09:12:57;143322.91;;;20.70;44.50
788;BME280;16074;42.708;23.312;2023-04-30T09:15:26;143508.94;;;21.46;44.34
788;BME280;16074;42.708;23.312;2023-04-30T09:18:06;143597.72;;;21.82;42.70
788;BME280;16074;42.708;23.312;2023-04-30T09:20:35;143609.91;;;21.87;42.13
788;BME280;16074;42.708;23.312;2023-04-30T09:23:09;143686.53;;;22.19;42.01
788;BME280;16074;42.708;23.312;2023-04-30T09:25:38;143754.75;;;22.47;41.92
788;BME280;16074;42.708;23.312;2023-04-30T09:28:08;143850.91;;;22.86;40.96
788;BME280;16074;42.708;23.312;2023-04-30T09:30:37;143900.81;;;23.06;40.65
788;BME280;16074;42.708;23.312;2023-04-30T09:33:06;143933.72;;;23.20;39.87
788;BME280;16074;42.708;23.312;2023-04-30T09:35:38;144033.56;;;23.61;39.59
788;BME280;16074;42.708;23.312;2023-04-30T09:38:25;143966.59;;;23.33;39.87
788;BME280;16074;42.708;23.312;2023-04-30T09:40:54;144032.38;;;23.60;39.09
788;BME280;16074;42.708;23.312;2023-04-30T09:43:22;144034.81;;;23.61;39.16
788;BME280;16074;42.708;23.312;2023-04-30T09:45:51;144020.19;;;23.55;38.57
788;BME280;16074;42.708;23.312;2023-04-30T09:48:21;143909.38;;;23.10;39.52
788;BME280;16074;42.708;23.312;2023-04-30T09:50:50;143878.88;;;22.97;39.95
788;BME280;16074;42.708;23.312;2023-04-30T09:53:20;143856.97;;;22.89;40.38
788;BME280;16074;42.708;23.312;2023-04-30T09:55:50;143826.56;;;22.76;40.51
788;BME280;16074;42.708;23.312;2023-04-30T09:58:18;143889.81;;;23.02;40.15
788;BME280;16074;42.708;23.312;2023-04-30T10:00:49;143970.28;;;23.35;39.74
788;BME280;16074;42.708;23.312;2023-04-30T10:03:20;144005.56;;;23.49;39.28
788;BME280;16074;42.708;23.312;2023-04-30T10:05:50;143993.41;;;23.44;38.76
788;BME280;16074;42.708;23.312;2023-04-30T10:08:25;144086.00;;;23.82;38.50
788;BME280;16074;42.708;23.312;2023-04-30T10:10:58;144008.00;;;23.50;37.84
788;BME280;16074;42.708;23.312;2023-04-30T10:13:30;144066.50;;;23.74;37.90
788;BME280;16074;42.708;23.312;2023-04-30T10:16:03;144134.75;;;24.02;38.57
788;BME280;16074;42.708;23.312;2023-04-30T10:18:38;144125.00;;;23.98;37.84
788;BME280;16074;42.708;23.312;2023-04-30T10:21:08;143877.66;;;22.97;38.68
788;BME280;16074;42.708;23.312;2023-04-30T10:23:41;143815.56;;;22.72;40.78
788;BME280;16074;42.708;23.312;2023-04-30T10:26:10;143437.22;;;21.17;47.20
788;BME280;16074;42.708;23.312;2023-04-30T10:28:39;143152.88;;;20.00;58.07
788;BME280;16074;42.708;23.312;2023-04-30T10:31:08;142675.88;;;18.04;88.11
788;BME280;16074;42.708;23.312;2023-04-30T10:33:53;142519.53;;;17.40;95.88
788;BME280;16074;42.708;23.312;2023-04-30T10:36:27;142485.59;;;17.26;100.00
788;BME280;16074;42.708;23.312;2023-04-30T10:39:00;142415.31;;;16.97;100.00
788;BME280;16074;42.708;23.312;2023-04-30T10:41:30;142343.84;;;16.68;100.00
788;BME280;16074;42.708;23.312;2023-04-30T10:44:00;142353.53;;;16.72;100.00
788;BME280;16074;42.708;23.312;2023-04-30T10:46:33;142339.00;;;16.66;100.00
788;BME280;16074;42.708;23.312;2023-04-30T10:49:02;142426.19;;;17.02;100.00
788;BME280;16074;42.708;23.312;2023-04-30T10:51:45;142637.09;;;17.89;100.00
788;BME280;16074;42.708;23.312;2023-04-30T10:54:17;142844.50;;;18.74;100.00
788;BME280;16074;42.708;23.312;2023-04-30T10:56:50;143047.19;;;19.57;95.67
788;BME280;16074;42.708;23.312;2023-04-30T10:59:18;143290.09;;;20.56;83.53
788;BME280;16074;42.708;23.312;2023-04-30T11:01:57;143532.03;;;21.56;78.50
788;BME280;16074;42.708;23.312;2023-04-30T11:04:26;143762.06;;;22.50;67.89
788;BME280;16074;42.708;23.312;2023-04-30T11:07:00;143877.66;;;22.97;57.81
788;BME280;16074;42.708;23.312;2023-04-30T11:09:39;143916.66;;;23.13;60.42
788;BME280;16074;42.708;23.312;2023-04-30T11:12:12;144025.06;;;23.57;56.91
788;BME280;16074;42.708;23.312;2023-04-30T11:14:43;143961.72;;;23.31;52.99
788;BME280;16074;42.708;23.312;2023-04-30T11:17:12;143972.72;;;23.36;49.99
788;BME280;16074;42.708;23.312;2023-04-30T11:19:50;143887.41;;;23.01;53.87
788;BME280;16074;42.708;23.312;2023-04-30T11:22:21;143876.47;;;22.96;52.24
788;BME280;16074;42.708;23.312;2023-04-30T11:25:02;143863.09;;;22.91;51.87
788;BME280;16074;42.708;23.312;2023-04-30T11:27:32;143831.44;;;22.78;51.47
788;BME280;16074;42.708;23.312;2023-04-30T11:30:02;143872.78;;;22.95;50.71
788;BME280;16074;42.708;23.312;2023-04-30T11:32:32;144000.69;;;23.47;51.47
788;BME280;16074;42.708;23.312;2023-04-30T11:35:02;144149.38;;;24.08;51.32
788;BME280;16074;42.708;23.312;2023-04-30T11:37:31;144257.91;;;24.52;48.88
788;BME280;16074;42.708;23.312;2023-04-30T11:40:03;144321.25;;;24.78;48.17
788;BME280;16074;42.708;23.312;2023-04-30T11:42:31;144528.69;;;25.63;44.63
788;BME280;16074;42.708;23.312;2023-04-30T11:45:06;144711.75;;;26.38;43.88
788;BME280;16074;42.708;23.312;2023-04-30T11:47:39;144786.28;;;26.68;42.41
788;BME280;16074;42.708;23.312;2023-04-30T11:50:09;144921.91;;;27.23;41.30
788;BME280;16074;42.708;23.312;2023-04-30T11:52:38;144888.94;;;27.10;42.15
788;BME280;16074;42.708;23.312;2023-04-30T11:55:14;144920.66;;;27.23;40.38
788;BME280;16074;42.708;23.312;2023-04-30T11:57:44;145055.13;;;27.78;38.93
788;BME280;16074;42.708;23.312;2023-04-30T12:00:15;145110.16;;;28.00;38.15
788;BME280;16074;42.708;23.312;2023-04-30T12:02:45;145057.56;;;27.79;37.55
788;BME280;16074;42.708;23.312;2023-04-30T12:05:15;144793.59;;;26.71;39.88
788;BME280;16074;42.708;23.312;2023-04-30T12:07:46;144769.22;;;26.61;38.98
788;BME280;16074;42.708;23.312;2023-04-30T12:10:18;144634.84;;;26.06;38.90
788;BME280;16074;42.708;23.312;2023-04-30T12:12:47;144438.38;;;25.26;41.97
788;BME280;16074;42.708;23.312;2023-04-30T12:15:19;144290.81;;;24.66;42.84
788;BME280;16074;42.708;23.312;2023-04-30T12:17:52;144154.25;;;24.10;43.43
788;BME280;16074;42.708;23.312;2023-04-30T12:20:23;144006.81;;;23.50;46.49
788;BME280;16074;42.708;23.312;2023-04-30T12:22:51;143856.97;;;22.89;56.89
788;BME280;16074;42.708;23.312;2023-04-30T12:25:22;143651.28;;;22.04;58.84
788;BME280;16074;42.708;23.312;2023-04-30T12:27:51;143600.16;;;21.83;58.98
788;BME280;16074;42.708;23.312;2023-04-30T12:30:23;143496.78;;;21.41;58.87
788;BME280;16074;42.708;23.312;2023-04-30T12:32:55;143382.53;;;20.94;59.47
788;BME280;16074;42.708;23.312;2023-04-30T12:35:26;143268.22;;;20.47;60.29
788;BME280;16074;42.708;23.312;2023-04-30T12:38:01;143324.13;;;20.70;60.58
788;BME280;16074;42.708;23.312;2023-04-30T12:40:31;143523.56;;;21.52;59.20
788;BME280;16074;42.708;23.312;2023-04-30T12:43:01;143663.44;;;22.09;56.96
788;BME280;16074;42.708;23.312;2023-04-30T12:45:43;143926.41;;;23.17;51.41
788;BME280;16074;42.708;23.312;2023-04-30T12:48:13;144183.50;;;24.22;49.68
788;BME280;16074;42.708;23.312;2023-04-30T12:50:47;144221.28;;;24.37;43.99
788;BME280;16074;42.708;23.312;2023-04-30T12:53:16;144140.88;;;24.05;45.73
788;BME280;16074;42.708;23.312;2023-04-30T12:56:07;144011.63;;;23.52;44.93
788;BME280;16074;42.708;23.312;2023-04-30T12:58:37;143889.81;;;23.02;47.68
788;BME280;16074;42.708;23.312;2023-04-30T13:01:09;143880.09;;;22.98;46.76
788;BME280;16074;42.708;23.312;2023-04-30T13:03:38;143766.91;;;22.52;46.88
788;BME280;16074;42.708;23.312;2023-04-30T13:06:08;143751.06;;;22.45;46.52
788;BME280;16074;42.708;23.312;2023-04-30T13:08:37;143535.66;;;21.57;46.88
788;BME280;16074;42.708;23.312;2023-04-30T13:11:25;143515.00;;;21.49;46.85
788;BME280;16074;42.708;23.312;2023-04-30T13:13:54;143468.78;;;21.30;46.53